createdAt,value
2018-03-06T00:00:41.343Z,99.32
2018-03-06T00:01:41.274Z,99.22
2018-03-06T00:02:41.184Z,99.98
2018-03-06T00:03:41.055Z,99.99
2018-03-06T00:04:40.981Z,99.99
2018-03-06T00:05:40.894Z,99.99
2018-03-06T00:06:40.776Z,99.99
2018-03-06T00:07:40.725Z,99.70
2018-03-06T00:08:40.568Z,99.99
2018-03-06T00:09:40.483Z,99.79
2018-03-06T00:10:40.343Z,99.99
2018-03-06T00:11:40.253Z,99.98
2018-03-06T00:12:40.153Z,99.88
2018-03-06T00:13:40.081Z,99.99
2018-03-06T00:14:39.955Z,99.99
2018-03-06T00:15:39.846Z,99.99
2018-03-06T00:16:39.757Z,99.99
2018-03-06T00:17:39.673Z,99.51
2018-03-06T00:18:39.559Z,99.79
2018-03-06T00:19:39.488Z,99.70
2018-03-06T00:20:39.352Z,99.99
2018-03-06T00:21:39.259Z,99.99
2018-03-06T00:22:39.163Z,99.99
2018-03-06T00:23:39.067Z,99.99
2018-03-06T00:24:39.022Z,99.22
2018-03-06T00:25:38.918Z,99.32
2018-03-06T00:26:38.789Z,99.13
2018-03-06T00:27:38.697Z,99.04
2018-03-06T00:28:38.600Z,98.38
2018-03-06T00:29:38.481Z,99.04
2018-03-06T00:30:38.401Z,99.41
2018-03-06T00:31:38.339Z,99.60
2018-03-06T00:32:38.204Z,99.99
2018-03-06T00:33:38.100Z,99.99
2018-03-06T00:34:37.970Z,99.99
2018-03-06T00:35:37.909Z,99.70
2018-03-06T00:36:37.791Z,99.79
2018-03-06T00:37:37.707Z,98.94
2018-03-06T00:38:37.572Z,98.90
2018-03-06T00:39:37.471Z,98.90
2018-03-06T00:40:37.368Z,99.27
2018-03-06T00:41:37.270Z,98.90
2018-03-06T00:42:37.174Z,98.71
2018-03-06T00:43:37.116Z,98.04
2018-03-06T00:44:36.979Z,98.04
2018-03-06T00:45:36.886Z,99.18
2018-03-06T00:46:36.787Z,99.99
2018-03-06T00:47:36.680Z,99.99
2018-03-06T00:48:36.579Z,99.99
2018-03-06T00:49:36.503Z,99.99
2018-03-06T00:50:36.445Z,99.99
2018-03-06T00:51:36.396Z,99.99
2018-03-06T00:52:36.196Z,99.99
2018-03-06T00:53:36.215Z,99.99
2018-03-06T00:54:36.189Z,99.99
2018-03-06T00:55:36.193Z,99.84
2018-03-06T00:56:36.122Z,99.99
2018-03-06T00:57:36.057Z,99.99
2018-03-06T00:58:36.310Z,99.99
2018-03-06T00:59:35.567Z,99.99
2018-03-06T01:00:35.403Z,99.99
2018-03-06T01:01:35.385Z,99.99
2018-03-06T01:02:35.228Z,99.99
2018-03-06T01:03:35.135Z,99.46
2018-03-06T01:04:34.985Z,99.84
2018-03-06T01:05:34.890Z,99.99
2018-03-06T01:06:34.786Z,99.99
2018-03-06T01:07:34.713Z,99.99
2018-03-06T01:08:34.587Z,99.99
2018-03-06T01:09:34.493Z,99.99
2018-03-06T01:10:34.397Z,99.99
2018-03-06T01:11:34.290Z,99.99
2018-03-06T01:12:34.195Z,99.65
2018-03-06T01:13:34.128Z,99.99
2018-03-06T01:14:33.999Z,99.99
2018-03-06T01:15:33.892Z,99.99
2018-03-06T01:16:33.836Z,99.99
2018-03-06T01:17:33.722Z,99.99
2018-03-06T01:18:33.625Z,99.99
2018-03-06T01:19:33.553Z,99.99
2018-03-06T01:20:33.431Z,99.99
2018-03-06T01:21:33.323Z,99.99
2018-03-06T01:22:33.240Z,99.99
2018-03-06T01:23:56.848Z,99.99
2018-03-06T01:24:33.035Z,99.99
2018-03-06T01:25:32.956Z,99.99
2018-03-06T01:26:32.821Z,99.93
2018-03-06T01:27:32.731Z,99.08
2018-03-06T01:28:32.626Z,99.84
2018-03-06T01:29:32.506Z,99.99
2018-03-06T01:30:32.399Z,99.99
2018-03-06T01:31:32.346Z,99.99
2018-03-06T01:32:32.201Z,99.99
2018-03-06T01:33:32.106Z,99.99
2018-03-06T01:34:32.011Z,99.99
2018-03-06T01:35:31.904Z,99.99
2018-03-06T01:36:31.813Z,99.99
2018-03-06T01:37:31.778Z,99.99
2018-03-06T01:38:31.613Z,99.99
2018-03-06T01:39:31.512Z,99.99
2018-03-06T01:40:31.404Z,99.99
2018-03-06T01:41:31.317Z,99.99
2018-03-06T01:42:31.222Z,99.99
2018-03-06T01:43:31.176Z,99.99
2018-03-06T01:44:31.029Z,99.99
2018-03-06T01:45:30.920Z,99.99
2018-03-06T01:46:30.845Z,99.99
2018-03-06T01:47:30.725Z,99.99
2018-03-06T01:48:30.650Z,99.99
2018-03-06T01:49:30.631Z,99.65
2018-03-06T01:50:30.449Z,99.37
2018-03-06T01:51:30.335Z,99.74
2018-03-06T01:52:30.260Z,99.99
2018-03-06T01:53:30.118Z,99.99
2018-03-06T01:54:30.011Z,99.99
2018-03-06T01:55:29.960Z,99.99
2018-03-06T01:56:29.819Z,99.99
2018-03-06T01:57:29.711Z,99.99
2018-03-06T01:58:29.609Z,99.99
2018-03-06T01:59:29.515Z,99.99
2018-03-06T02:00:29.414Z,99.99
2018-03-06T02:01:29.344Z,99.99
2018-03-06T02:02:29.205Z,99.99
2018-03-06T02:03:29.127Z,99.99
2018-03-06T02:04:29.029Z,99.99
2018-03-06T02:05:28.918Z,99.99
2018-03-06T02:06:28.814Z,99.99
2018-03-06T02:07:28.757Z,99.99
2018-03-06T02:08:28.625Z,99.99
2018-03-06T02:09:28.559Z,99.99
2018-03-06T02:10:28.447Z,99.99
2018-03-06T02:11:28.326Z,99.99
2018-03-06T02:12:28.255Z,99.99
2018-03-06T02:13:28.208Z,99.99
2018-03-06T02:14:28.098Z,99.99
2018-03-06T02:15:27.948Z,99.99
2018-03-06T02:16:27.854Z,99.99
2018-03-06T02:17:27.759Z,99.99
2018-03-06T02:18:27.637Z,99.99
2018-03-06T02:19:27.572Z,99.99
2018-03-06T02:20:27.466Z,99.99
2018-03-06T02:21:27.348Z,99.99
2018-03-06T02:22:27.214Z,99.99
2018-03-06T02:23:27.112Z,99.99
2018-03-06T02:24:27.030Z,99.99
2018-03-06T02:25:26.968Z,99.99
2018-03-06T02:26:26.820Z,99.99
2018-03-06T02:27:26.718Z,99.99
2018-03-06T02:28:26.624Z,99.99
2018-03-06T02:29:26.520Z,99.99
2018-03-06T02:30:26.449Z,99.99
2018-03-06T02:31:26.354Z,99.99
2018-03-06T02:32:26.223Z,99.99
2018-03-06T02:33:26.121Z,99.99
2018-03-06T02:34:26.032Z,99.99
2018-03-06T02:35:25.927Z,99.99
2018-03-06T02:36:25.856Z,99.99
2018-03-06T02:37:25.764Z,99.99
2018-03-06T02:38:25.646Z,99.99
2018-03-06T02:39:25.556Z,99.99
2018-03-06T02:40:25.464Z,99.99
2018-03-06T02:41:25.369Z,99.99
2018-03-06T02:42:25.258Z,99.99
2018-03-06T02:43:25.177Z,99.99
2018-03-06T02:44:25.071Z,99.99
2018-03-06T02:45:24.968Z,99.99
2018-03-06T02:46:24.829Z,99.99
2018-03-06T02:47:24.764Z,99.99
2018-03-06T02:48:24.644Z,99.99
2018-03-06T02:49:24.589Z,99.99
2018-03-06T02:50:24.426Z,99.99
2018-03-06T02:51:24.327Z,99.99
2018-03-06T02:52:24.222Z,99.99
2018-03-06T02:53:24.124Z,99.99
2018-03-06T02:54:24.035Z,99.99
2018-03-06T02:55:23.967Z,99.99
2018-03-06T02:56:23.848Z,99.99
2018-03-06T02:57:23.731Z,99.99
2018-03-06T02:58:23.640Z,99.99
2018-03-06T02:59:23.539Z,99.99
2018-03-06T03:00:23.440Z,99.99
2018-03-06T03:01:23.382Z,99.99
2018-03-06T03:02:23.269Z,99.99
2018-03-06T03:03:23.172Z,99.99
2018-03-06T03:04:23.043Z,99.99
2018-03-06T03:05:22.989Z,99.99
2018-03-06T03:06:22.885Z,99.99
2018-03-06T03:07:22.815Z,99.99
2018-03-06T03:08:22.656Z,99.99
2018-03-06T03:09:22.550Z,99.99
2018-03-06T03:10:22.478Z,99.99
2018-03-06T03:11:22.391Z,99.99
2018-03-06T03:12:22.285Z,99.99
2018-03-06T03:13:22.206Z,99.99
2018-03-06T03:14:22.041Z,99.99
2018-03-06T03:15:21.937Z,99.99
2018-03-06T03:16:21.833Z,99.99
2018-03-06T03:17:21.748Z,99.99
2018-03-06T03:18:21.636Z,99.99
2018-03-06T03:19:21.578Z,99.99
2018-03-06T03:20:21.431Z,99.99
2018-03-06T03:21:21.334Z,99.99
2018-03-06T03:22:21.242Z,99.99
2018-03-06T03:23:21.142Z,99.99
2018-03-06T03:24:21.042Z,99.99
2018-03-06T03:25:21.010Z,99.99
2018-03-06T03:26:20.852Z,99.99
2018-03-06T03:27:20.737Z,99.99
2018-03-06T03:28:20.652Z,99.99
2018-03-06T03:29:20.567Z,99.99
2018-03-06T03:30:20.462Z,99.99
2018-03-06T03:31:20.394Z,99.99
2018-03-06T03:32:20.266Z,99.99
2018-03-06T03:33:20.156Z,99.99
2018-03-06T03:34:20.083Z,99.99
2018-03-06T03:35:19.961Z,99.99
2018-03-06T03:36:19.847Z,99.99
2018-03-06T03:37:19.774Z,99.99
2018-03-06T03:38:19.669Z,99.99
2018-03-06T03:39:19.558Z,99.99
2018-03-06T03:40:19.484Z,99.99
2018-03-06T03:41:19.369Z,99.99
2018-03-06T03:42:19.283Z,99.99
2018-03-06T03:43:19.193Z,99.99
2018-03-06T03:44:19.043Z,99.99
2018-03-06T03:45:18.939Z,99.99
2018-03-06T03:46:18.850Z,99.99
2018-03-06T03:47:18.755Z,99.99
2018-03-06T03:48:18.641Z,99.99
2018-03-06T03:49:18.566Z,99.99
2018-03-06T03:50:18.447Z,99.99
2018-03-06T03:51:18.356Z,99.99
2018-03-06T03:52:18.279Z,99.99
2018-03-06T03:53:18.138Z,99.99
2018-03-06T03:54:18.043Z,99.99
2018-03-06T03:55:17.968Z,99.99
2018-03-06T03:56:17.845Z,99.99
2018-03-06T03:57:17.765Z,99.99
2018-03-06T03:58:17.683Z,99.99
2018-03-06T03:59:17.597Z,99.99
2018-03-06T04:00:17.481Z,99.99
2018-03-06T04:01:17.401Z,99.99
2018-03-06T04:02:17.266Z,99.99
2018-03-06T04:03:17.209Z,99.99
2018-03-06T04:04:17.136Z,99.99
2018-03-06T04:05:16.979Z,99.99
2018-03-06T04:06:16.851Z,99.99
2018-03-06T04:07:16.822Z,99.99
2018-03-06T04:08:16.676Z,99.99
2018-03-06T04:09:16.582Z,99.99
2018-03-06T04:10:16.447Z,99.99
2018-03-06T04:11:16.347Z,99.99
2018-03-06T04:12:16.258Z,99.99
2018-03-06T04:13:16.176Z,99.99
2018-03-06T04:14:16.042Z,99.99
2018-03-06T04:15:15.954Z,99.99
2018-03-06T04:16:15.867Z,99.99
2018-03-06T04:17:15.749Z,99.99
2018-03-06T04:18:15.707Z,99.99
2018-03-06T04:19:15.586Z,99.99
2018-03-06T04:20:15.449Z,99.99
2018-03-06T04:21:15.339Z,99.99
2018-03-06T04:22:15.243Z,99.99
2018-03-06T04:23:15.167Z,99.99
2018-03-06T04:24:15.058Z,99.99
2018-03-06T04:25:15.302Z,99.99
2018-03-06T04:26:14.921Z,99.99
2018-03-06T04:27:14.784Z,99.99
2018-03-06T04:28:14.718Z,99.99
2018-03-06T04:29:14.583Z,99.99
2018-03-06T04:30:14.493Z,99.99
2018-03-06T04:31:14.407Z,99.99
2018-03-06T04:32:14.258Z,99.99
2018-03-06T04:33:14.196Z,99.99
2018-03-06T04:34:14.096Z,99.99
2018-03-06T04:35:13.977Z,99.99
2018-03-06T04:36:13.883Z,99.99
2018-03-06T04:37:13.833Z,99.99
2018-03-06T04:38:13.676Z,99.99
2018-03-06T04:39:13.549Z,99.99
2018-03-06T04:40:13.463Z,99.99
2018-03-06T04:41:13.373Z,99.99
2018-03-06T04:42:13.239Z,99.99
2018-03-06T04:43:13.280Z,99.99
2018-03-06T04:44:13.093Z,99.99
2018-03-06T04:45:12.959Z,99.99
2018-03-06T04:46:12.858Z,99.99
2018-03-06T04:47:12.750Z,99.99
2018-03-06T04:48:12.666Z,99.99
2018-03-06T04:49:12.584Z,99.99
2018-03-06T04:50:12.494Z,99.99
2018-03-06T04:51:12.397Z,99.99
2018-03-06T04:52:12.282Z,99.99
2018-03-06T04:53:12.192Z,99.99
2018-03-06T04:54:12.088Z,99.99
2018-03-06T04:55:12.049Z,99.99
2018-03-06T04:56:11.863Z,99.99
2018-03-06T04:57:11.762Z,99.99
2018-03-06T04:58:11.677Z,99.99
2018-03-06T04:59:11.594Z,99.99
2018-03-06T05:00:11.488Z,99.99
2018-03-06T05:01:11.411Z,99.99
2018-03-06T05:02:11.315Z,99.99
2018-03-06T05:03:11.172Z,99.99
2018-03-06T05:04:11.054Z,99.99
2018-03-06T05:05:10.947Z,99.99
2018-03-06T05:06:10.858Z,99.99
2018-03-06T05:07:10.792Z,99.99
2018-03-06T05:08:10.649Z,99.99
2018-03-06T05:09:10.548Z,99.99
2018-03-06T05:10:10.462Z,99.99
2018-03-06T05:11:10.359Z,99.99
2018-03-06T05:12:10.263Z,99.99
2018-03-06T05:13:10.191Z,99.99
2018-03-06T05:14:10.056Z,99.99
2018-03-06T05:15:09.959Z,99.99
2018-03-06T05:16:09.866Z,99.99
2018-03-06T05:17:09.777Z,99.99
2018-03-06T05:18:09.693Z,99.99
2018-03-06T05:19:09.602Z,99.99
2018-03-06T05:20:09.453Z,99.99
2018-03-06T05:21:09.366Z,99.99
2018-03-06T05:22:09.266Z,99.99
2018-03-06T05:23:09.195Z,99.99
2018-03-06T05:24:09.108Z,99.99
2018-03-06T05:25:09.016Z,99.99
2018-03-06T05:26:08.901Z,99.99
2018-03-06T05:27:08.768Z,99.99
2018-03-06T05:28:08.657Z,99.99
2018-03-06T05:29:08.589Z,99.99
2018-03-06T05:30:08.478Z,99.99
2018-03-06T05:31:08.395Z,99.99
2018-03-06T05:32:08.258Z,99.99
2018-03-06T05:33:08.156Z,99.99
2018-03-06T05:34:08.064Z,99.99
2018-03-06T05:35:07.962Z,99.99
2018-03-06T05:36:07.851Z,99.99
2018-03-06T05:37:07.808Z,99.99
2018-03-06T05:38:07.654Z,99.99
2018-03-06T05:39:07.548Z,99.99
2018-03-06T05:40:07.447Z,99.99
2018-03-06T05:41:07.340Z,99.99
2018-03-06T05:42:07.251Z,99.99
2018-03-06T05:43:07.187Z,99.99
2018-03-06T05:44:07.044Z,99.99
2018-03-06T05:45:06.980Z,99.99
2018-03-06T05:46:06.864Z,99.99
2018-03-06T05:47:06.755Z,99.99
2018-03-06T05:48:06.686Z,99.99
2018-03-06T05:49:06.634Z,99.99
2018-03-06T05:50:06.468Z,99.99
2018-03-06T05:51:06.390Z,99.99
2018-03-06T05:52:06.256Z,99.99
2018-03-06T05:53:06.157Z,99.99
2018-03-06T05:54:06.056Z,99.99
2018-03-06T05:55:05.993Z,99.99
2018-03-06T05:56:05.854Z,99.99
2018-03-06T05:57:05.790Z,99.99
2018-03-06T05:58:05.650Z,99.99
2018-03-06T05:59:05.562Z,99.99
2018-03-06T06:00:05.443Z,99.99
2018-03-06T06:01:05.383Z,99.99
2018-03-06T06:02:05.250Z,99.99
2018-03-06T06:03:05.171Z,99.99
2018-03-06T06:04:05.059Z,99.99
2018-03-06T06:05:04.958Z,99.99
2018-03-06T06:06:04.850Z,99.99
2018-03-06T06:07:04.842Z,99.99
2018-03-06T06:08:04.672Z,99.99
2018-03-06T06:09:04.552Z,99.99
2018-03-06T06:12:54.530Z,99.99
2018-03-06T06:13:54.381Z,99.99
2018-03-06T06:14:54.304Z,99.99
2018-03-06T06:15:54.168Z,99.99
2018-03-06T06:16:54.128Z,99.99
2018-03-06T06:17:54.927Z,99.99
2018-03-06T06:18:53.914Z,99.99
2018-03-06T06:19:53.754Z,99.99
2018-03-06T06:20:53.647Z,99.99
2018-03-06T06:21:53.556Z,99.99
2018-03-06T06:22:53.441Z,99.99
2018-03-06T06:23:53.337Z,99.99
2018-03-06T06:24:53.306Z,99.99
2018-03-06T06:25:53.129Z,99.99
2018-03-06T06:26:53.028Z,99.99
2018-03-06T06:27:52.932Z,99.99
2018-03-06T06:28:52.832Z,99.99
2018-03-06T06:29:52.724Z,99.99
2018-03-06T06:30:52.709Z,99.99
2018-03-06T06:31:52.585Z,99.99
2018-03-06T06:32:52.450Z,99.99
2018-03-06T06:33:52.371Z,99.99
2018-03-06T06:34:52.258Z,99.99
2018-03-06T06:35:52.160Z,99.99
2018-03-06T06:36:52.114Z,99.99
2018-03-06T06:37:51.982Z,99.99
2018-03-06T06:38:51.851Z,99.99
2018-03-06T06:39:51.749Z,99.99
2018-03-06T06:40:51.666Z,99.99
2018-03-06T06:41:51.565Z,99.99
2018-03-06T06:42:51.485Z,99.99
2018-03-06T06:43:51.348Z,99.99
2018-03-06T06:44:51.233Z,99.99
2018-03-06T06:45:51.145Z,99.99
2018-03-06T06:46:51.086Z,99.99
2018-03-06T06:47:50.945Z,99.99
2018-03-06T06:48:50.885Z,99.99
2018-03-06T06:49:50.771Z,99.99
2018-03-06T06:50:50.652Z,99.99
2018-03-06T06:51:50.553Z,99.99
2018-03-06T06:52:50.444Z,99.99
2018-03-06T06:53:50.335Z,99.99
2018-03-06T06:54:50.306Z,99.99
2018-03-06T06:55:50.211Z,99.99
2018-03-06T06:56:50.132Z,99.99
2018-03-06T06:57:49.991Z,99.99
2018-03-06T06:58:49.874Z,99.99
2018-03-06T06:59:49.839Z,99.99
2018-03-06T07:00:49.668Z,99.99
2018-03-06T07:01:49.582Z,99.99
2018-03-06T07:02:49.496Z,99.99
2018-03-06T07:03:49.452Z,99.99
2018-03-06T07:04:49.309Z,99.99
2018-03-06T07:05:49.196Z,99.88
2018-03-06T07:06:49.071Z,99.99
2018-03-06T07:07:48.951Z,99.99
2018-03-06T07:08:48.862Z,99.99
2018-03-06T07:09:48.768Z,99.99
2018-03-06T07:10:48.668Z,99.99
2018-03-06T07:11:48.603Z,99.70
2018-03-06T07:12:48.472Z,99.70
2018-03-06T07:13:48.401Z,99.27
2018-03-06T07:14:48.265Z,98.99
2018-03-06T07:15:48.219Z,99.37
2018-03-06T07:16:48.067Z,99.08
2018-03-06T07:17:47.967Z,98.99
2018-03-06T07:18:47.862Z,98.52
2018-03-06T07:19:47.796Z,98.71
2018-03-06T07:20:47.689Z,98.14
2018-03-06T07:21:47.633Z,97.96
2018-03-06T07:22:47.574Z,97.20
2018-03-06T07:23:47.425Z,97.48
2018-03-06T07:24:47.329Z,97.67
2018-03-06T07:25:47.198Z,97.20
2018-03-06T07:26:47.144Z,97.58
2018-03-06T07:27:47.064Z,97.20
2018-03-06T07:28:47.040Z,97.01
2018-03-06T07:29:47.353Z,97.10
2018-03-06T07:30:46.774Z,96.73
2018-03-06T07:31:46.616Z,97.20
2018-03-06T07:32:46.504Z,97.20
2018-03-06T07:33:46.473Z,97.01
2018-03-06T07:34:46.420Z,96.54
2018-03-06T07:35:46.220Z,95.87
2018-03-06T07:36:46.096Z,96.78
2018-03-06T07:37:46.027Z,96.49
2018-03-06T07:38:45.922Z,96.59
2018-03-06T07:39:45.811Z,95.83
2018-03-06T07:40:45.849Z,94.70
2018-03-06T07:41:45.687Z,94.79
2018-03-06T07:42:45.524Z,95.45
2018-03-06T07:43:45.432Z,94.60
2018-03-06T07:44:45.356Z,95.17
2018-03-06T07:45:45.285Z,95.83
2018-03-06T07:46:45.175Z,94.89
2018-03-06T07:47:45.065Z,95.64
2018-03-06T07:48:44.959Z,95.45
2018-03-06T07:49:44.870Z,94.89
2018-03-06T07:50:44.777Z,94.60
2018-03-06T07:51:44.792Z,93.56
2018-03-06T07:52:44.594Z,94.22
2018-03-06T07:53:44.481Z,94.74
2018-03-06T07:54:44.368Z,93.61
2018-03-06T07:55:44.292Z,93.42
2018-03-06T07:56:44.180Z,93.13
2018-03-06T07:57:44.100Z,93.04
2018-03-06T07:58:43.975Z,91.81
2018-03-06T07:59:43.874Z,92.57
2018-03-06T08:00:43.791Z,92.29
2018-03-06T08:01:43.691Z,92.85
2018-03-06T08:02:43.599Z,92.00
2018-03-06T08:03:43.548Z,91.24
2018-03-06T08:04:43.406Z,91.43
2018-03-06T08:05:43.314Z,91.15
2018-03-06T08:06:43.207Z,90.77
2018-03-06T08:07:43.100Z,90.49
2018-03-06T08:08:43.017Z,90.58
2018-03-06T08:09:42.935Z,90.68
2018-03-06T08:10:42.826Z,91.10
2018-03-06T08:11:42.767Z,91.10
2018-03-06T08:12:42.668Z,91.58
2018-03-06T08:13:42.554Z,91.58
2018-03-06T08:14:42.495Z,92.24
2018-03-06T08:15:42.385Z,92.05
2018-03-06T08:16:42.316Z,91.58
2018-03-06T08:17:42.208Z,90.44
2018-03-06T08:18:42.081Z,90.25
2018-03-06T08:19:41.986Z,90.34
2018-03-06T08:20:41.923Z,89.87
2018-03-06T08:21:41.814Z,90.72
2018-03-06T08:22:41.699Z,89.78
2018-03-06T08:23:41.580Z,90.16
2018-03-06T08:24:41.515Z,90.25
2018-03-06T08:25:41.394Z,90.82
2018-03-06T08:26:41.374Z,91.48
2018-03-06T08:27:41.210Z,90.82
2018-03-06T08:28:41.122Z,90.63
2018-03-06T08:29:41.015Z,90.16
2018-03-06T08:30:40.939Z,89.97
2018-03-06T08:31:40.824Z,89.73
2018-03-06T08:32:40.762Z,89.54
2018-03-06T08:33:40.646Z,88.78
2018-03-06T08:34:40.537Z,88.78
2018-03-06T08:35:40.462Z,88.49
2018-03-06T08:36:40.370Z,89.63
2018-03-06T08:37:40.299Z,89.44
2018-03-06T08:38:40.192Z,88.97
2018-03-06T08:39:40.088Z,89.35
2018-03-06T08:40:40.017Z,88.97
2018-03-06T08:41:39.899Z,89.06
2018-03-06T08:42:39.793Z,89.16
2018-03-06T08:43:40.339Z,88.87
2018-03-06T08:44:39.630Z,88.78
2018-03-06T08:45:39.518Z,88.12
2018-03-06T08:46:39.417Z,87.40
2018-03-06T08:47:39.327Z,88.07
2018-03-06T08:48:39.225Z,87.50
2018-03-06T08:49:39.183Z,86.93
2018-03-06T08:50:39.046Z,87.12
2018-03-06T08:51:38.946Z,86.74
2018-03-06T08:52:38.845Z,86.74
2018-03-06T08:53:38.749Z,86.46
2018-03-06T08:54:38.660Z,85.70
2018-03-06T08:55:38.586Z,85.32
2018-03-06T08:56:38.467Z,85.42
2018-03-06T08:57:38.381Z,84.28
2018-03-06T08:58:38.272Z,85.23
2018-03-06T08:59:38.196Z,85.42
2018-03-06T09:00:38.121Z,85.61
2018-03-06T09:01:38.029Z,85.74
2018-03-06T09:02:37.929Z,83.75
2018-03-06T09:03:37.859Z,83.85
2018-03-06T09:04:37.764Z,83.37
2018-03-06T09:05:37.683Z,83.94
2018-03-06T09:06:37.647Z,83.66
2018-03-06T09:07:37.485Z,82.71
2018-03-06T09:08:37.395Z,82.43
2018-03-06T09:09:37.316Z,81.29
2018-03-06T09:10:37.217Z,82.14
2018-03-06T09:11:37.110Z,83.09
2018-03-06T09:12:37.031Z,83.66
2018-03-06T09:13:36.910Z,83.28
2018-03-06T09:14:36.802Z,80.76
2018-03-06T09:15:36.703Z,80.29
2018-03-06T09:16:36.628Z,81.33
2018-03-06T09:17:36.515Z,80.29
2018-03-06T09:18:36.498Z,80.10
2018-03-06T09:19:36.330Z,79.63
2018-03-06T09:20:36.260Z,79.91
2018-03-06T09:21:36.195Z,81.71
2018-03-06T09:22:36.051Z,80.00
2018-03-06T09:23:36.022Z,79.53
2018-03-06T09:24:35.939Z,79.82
2018-03-06T09:25:35.815Z,78.67
2018-03-06T09:26:35.711Z,78.58
2018-03-06T09:27:35.637Z,80.95
2018-03-06T09:28:35.517Z,81.14
2018-03-06T09:29:35.435Z,78.87
2018-03-06T09:30:35.359Z,79.53
2018-03-06T09:31:35.268Z,81.14
2018-03-06T09:32:35.151Z,79.91
2018-03-06T09:33:35.066Z,79.82
2018-03-06T09:34:34.960Z,78.67
2018-03-06T09:35:34.941Z,78.34
2018-03-06T09:36:34.802Z,78.34
2018-03-06T09:37:34.683Z,77.67
2018-03-06T09:38:34.606Z,78.30
2018-03-06T09:39:34.490Z,77.67
2018-03-06T09:40:34.437Z,78.67
2018-03-06T09:41:34.367Z,78.39
2018-03-06T09:42:34.201Z,79.06
2018-03-06T09:43:34.113Z,78.58
2018-03-06T09:44:34.044Z,78.49
2018-03-06T09:45:33.945Z,79.53
2018-03-06T09:46:33.855Z,78.87
2018-03-06T09:47:33.820Z,77.16
2018-03-06T09:48:33.664Z,76.06
2018-03-06T09:49:33.630Z,76.25
2018-03-06T09:50:33.489Z,76.06
2018-03-06T09:51:33.388Z,77.48
2018-03-06T09:52:33.322Z,77.96
2018-03-06T09:53:33.224Z,76.44
2018-03-06T09:54:33.148Z,75.87
2018-03-06T09:55:33.049Z,76.34
2018-03-06T09:56:32.948Z,77.96
2018-03-06T09:57:32.971Z,77.48
2018-03-06T09:58:32.816Z,75.68
2018-03-06T09:59:32.664Z,74.49
2018-03-06T10:00:32.568Z,73.35
2018-03-06T10:01:32.466Z,74.01
2018-03-06T10:02:32.376Z,73.44
2018-03-06T10:03:32.292Z,75.15
2018-03-06T10:04:32.244Z,74.30
2018-03-06T10:05:32.095Z,74.07
2018-03-06T10:06:31.997Z,74.45
2018-03-06T10:07:31.951Z,76.34
2018-03-06T10:08:31.834Z,74.73
2018-03-06T10:09:31.731Z,74.16
2018-03-06T10:10:31.731Z,75.02
2018-03-06T10:11:31.577Z,74.54
2018-03-06T10:12:31.477Z,74.26
2018-03-06T10:13:31.411Z,75.72
2018-03-06T10:14:31.313Z,75.68
2018-03-06T10:15:31.198Z,75.68
2018-03-06T10:16:31.156Z,73.44
2018-03-06T10:17:31.019Z,73.44
2018-03-06T10:18:30.939Z,72.49
2018-03-06T10:19:30.878Z,72.97
2018-03-06T10:20:30.752Z,74.30
2018-03-06T10:21:30.693Z,73.44
2018-03-06T10:22:30.580Z,73.07
2018-03-06T10:23:30.506Z,73.72
2018-03-06T10:24:30.366Z,73.44
2018-03-06T10:25:30.338Z,72.97
2018-03-06T10:26:30.223Z,73.35
2018-03-06T10:27:30.168Z,73.25
2018-03-06T10:28:30.025Z,73.92
2018-03-06T10:29:29.927Z,74.39
2018-03-06T10:30:29.855Z,73.63
2018-03-06T10:31:29.728Z,74.01
2018-03-06T10:32:29.635Z,73.25
2018-03-06T10:33:29.631Z,74.11
2018-03-06T10:34:29.469Z,74.20
2018-03-06T10:35:29.415Z,74.58
2018-03-06T10:36:29.279Z,72.97
2018-03-06T10:37:29.191Z,73.07
2018-03-06T10:38:29.102Z,71.55
2018-03-06T10:39:29.046Z,71.64
2018-03-06T10:40:28.942Z,72.97
2018-03-06T10:41:28.861Z,73.25
2018-03-06T10:42:28.733Z,72.02
2018-03-06T10:43:28.686Z,71.36
2018-03-06T10:44:28.587Z,72.49
2018-03-06T10:45:28.490Z,73.41
2018-03-06T10:46:28.410Z,74.54
2018-03-06T10:47:28.317Z,73.88
2018-03-06T10:48:28.243Z,74.35
2018-03-06T10:49:28.148Z,73.03
2018-03-06T10:50:28.183Z,73.44
2018-03-06T10:51:27.967Z,74.45
2018-03-06T10:52:27.835Z,74.35
2018-03-06T10:53:27.754Z,74.49
2018-03-06T10:54:27.648Z,73.25
2018-03-06T10:55:27.550Z,73.82
2018-03-06T10:56:27.500Z,74.01
2018-03-06T10:57:27.367Z,73.16
2018-03-06T10:58:27.302Z,72.97
2018-03-06T10:59:27.194Z,73.16
2018-03-06T11:00:27.103Z,72.78
2018-03-06T11:01:27.014Z,72.97
2018-03-06T11:02:26.960Z,73.54
2018-03-06T11:03:26.826Z,73.07
2018-03-06T11:04:26.739Z,73.54
2018-03-06T11:05:26.658Z,72.97
2018-03-06T11:06:26.598Z,72.40
2018-03-06T11:07:26.545Z,72.02
2018-03-06T11:08:26.431Z,72.55
2018-03-06T11:09:26.265Z,72.11
2018-03-06T11:10:26.236Z,72.27
2018-03-06T11:11:26.170Z,73.16
2018-03-06T11:12:25.998Z,73.07
2018-03-06T11:13:25.964Z,72.88
2018-03-06T11:14:25.944Z,73.07
2018-03-06T11:15:25.785Z,73.12
2018-03-06T11:16:25.638Z,74.54
2018-03-06T11:17:25.582Z,73.54
2018-03-06T11:18:25.518Z,74.11
2018-03-06T11:19:25.364Z,73.35
2018-03-06T11:20:25.342Z,72.84
2018-03-06T11:21:25.169Z,73.72
2018-03-06T11:22:25.083Z,73.44
2018-03-06T11:23:24.986Z,72.59
2018-03-06T11:24:24.899Z,72.59
2018-03-06T11:25:24.825Z,71.64
2018-03-06T11:26:24.763Z,71.92
2018-03-06T11:27:24.637Z,71.73
2018-03-06T11:28:24.561Z,71.73
2018-03-06T11:29:24.431Z,71.55
2018-03-06T11:30:24.386Z,72.02
2018-03-06T11:31:24.260Z,71.45
2018-03-06T11:32:24.216Z,71.55
2018-03-06T11:33:24.088Z,72.30
2018-03-06T11:34:24.034Z,72.21
2018-03-06T11:35:23.976Z,72.68
2018-03-06T11:36:23.872Z,72.59
2018-03-06T11:37:23.738Z,73.03
2018-03-06T11:38:23.742Z,73.50
2018-03-06T11:39:23.569Z,73.69
2018-03-06T11:40:23.513Z,75.11
2018-03-06T11:41:23.395Z,75.68
2018-03-06T11:42:23.275Z,75.55
2018-03-06T11:43:23.211Z,75.74
2018-03-06T11:44:23.171Z,74.79
2018-03-06T11:45:23.034Z,75.64
2018-03-06T11:46:22.937Z,76.73
2018-03-06T11:47:22.843Z,76.63
2018-03-06T11:48:22.808Z,76.44
2018-03-06T11:49:22.613Z,75.78
2018-03-06T11:50:22.619Z,75.31
2018-03-06T11:51:22.482Z,75.59
2018-03-06T11:52:22.351Z,75.64
2018-03-06T11:53:22.249Z,75.64
2018-03-06T11:54:22.176Z,76.03
2018-03-06T11:55:22.061Z,76.31
2018-03-06T11:56:22.035Z,76.97
2018-03-06T11:57:21.896Z,76.59
2018-03-06T11:58:21.810Z,76.59
2018-03-06T11:59:21.703Z,76.31
2018-03-06T12:00:21.620Z,76.12
2018-03-06T12:01:21.511Z,76.68
2018-03-06T12:02:21.461Z,78.87
2018-03-06T12:03:21.340Z,78.49
2018-03-06T12:04:21.250Z,79.06
2018-03-06T12:05:21.222Z,79.63
2018-03-06T12:06:21.113Z,79.72
2018-03-06T12:07:21.003Z,79.72
2018-03-06T12:08:20.982Z,80.25
2018-03-06T12:09:20.812Z,81.10
2018-03-06T12:10:20.711Z,80.63
2018-03-06T12:11:20.620Z,80.48
2018-03-06T12:12:20.621Z,82.09
2018-03-06T12:13:20.573Z,83.23
2018-03-06T12:14:20.565Z,81.52
2018-03-06T12:15:20.458Z,80.29
2018-03-06T12:16:20.323Z,79.25
2018-03-06T12:17:20.316Z,79.06
2018-03-06T12:18:20.270Z,79.72
2018-03-06T12:19:20.201Z,82.66
2018-03-06T12:20:20.128Z,83.42
2018-03-06T12:21:19.693Z,81.14
2018-03-06T12:22:19.620Z,80.76
2018-03-06T12:23:19.480Z,82.75
2018-03-06T12:24:19.397Z,81.05
2018-03-06T12:25:19.299Z,81.05
2018-03-06T12:26:19.264Z,81.33
2018-03-06T12:27:19.139Z,81.14
2018-03-06T12:28:19.057Z,80.67
2018-03-06T12:29:18.954Z,81.14
2018-03-06T12:30:18.856Z,81.33
2018-03-06T12:31:18.805Z,82.47
2018-03-06T12:32:18.789Z,82.28
2018-03-06T12:33:18.644Z,82.37
2018-03-06T12:34:18.525Z,83.56
2018-03-06T12:35:18.402Z,83.09
2018-03-06T12:36:18.305Z,82.90
2018-03-06T12:37:18.224Z,83.18
2018-03-06T12:38:18.171Z,82.62
2018-03-06T12:39:18.053Z,83.00
2018-03-06T12:40:17.941Z,84.04
2018-03-06T12:41:17.846Z,84.32
2018-03-06T12:42:17.750Z,84.32
2018-03-06T12:43:17.640Z,83.94
2018-03-06T12:44:17.596Z,85.55
2018-03-06T12:45:17.463Z,86.41
2018-03-06T12:46:17.364Z,85.08
2018-03-06T12:47:17.251Z,86.03
2018-03-06T12:48:17.169Z,85.65
2018-03-06T12:49:17.102Z,85.17
2018-03-06T12:50:17.062Z,86.98
2018-03-06T12:51:16.922Z,87.83
2018-03-06T12:52:16.810Z,86.98
2018-03-06T12:53:16.724Z,88.30
2018-03-06T12:54:16.620Z,87.73